Time;durP1;ratioP1;P1;durP2;ratioP2;P2;SDS_P1;SDS_P2;PMS_P1;PMS_P2;Temp;Humidity;BMP_temperature;BMP_pressure;BME280_temperature;BME280_humidity;BME280_pressure;Samples;Min_cycle;Max_cycle;Signal;HPM_P1;HPM_P2
2023/05/14 00:02:07;;;;;;;;;;;;;;;21.27;30.29;98630.75;5035184;28;1983;-73
2023/05/14 00:04:33;;;;;;;;;;;;;;;21.52;30.22;98629.59;5066821;28;929;-73
2023/05/14 00:06:58;;;;;;;;;;;;;;;21.80;29.95;98628.31;5110720;28;1079;-73
2023/05/14 00:09:24;;;;;;;;;;;;;;;22.16;29.07;98628.47;5093481;28;910;-73
2023/05/14 00:11:49;;;;;;;;;;;;;;;22.34;28.71;98633.81;5073042;28;1445;-73
2023/05/14 00:14:16;;;;;;;;;;;;;;;22.36;28.54;98628.50;5092970;28;1317;-73
2023/05/14 00:16:42;;;;;;;;;;;;;;;21.84;29.33;98629.84;5092304;28;1501;-73
2023/05/14 00:19:08;;;;;;;;;;;;;;;21.75;29.33;98626.75;5075065;28;974;-73
2023/05/14 00:21:33;;;;;;;;;;;;;;;21.47;29.51;98632.91;5058114;28;1424;-72
2023/05/14 00:23:59;;;;;;;;;;;;;;;21.32;30.30;98643.66;5058178;28;1909;-73
2023/05/14 00:26:24;;;;;;;;;;;;;;;22.22;29.21;98643.75;5075280;28;1003;-74
2023/05/14 00:28:50;;;;;;;;;;;;;;;22.44;28.74;98643.38;5057973;28;1477;-73
2023/05/14 00:31:15;;;;;;;;;;;;;;;21.82;29.54;98643.66;5075388;28;964;-72
2023/05/14 00:33:41;;;;;;;;;;;;;;;21.72;29.31;98649.50;5074728;28;979;-74
2023/05/14 00:36:07;;;;;;;;;;;;;;;21.68;29.46;98648.75;5074795;28;1240;-73
2023/05/14 00:38:32;;;;;;;;;;;;;;;21.62;29.46;98651.28;5057467;28;1334;-72
2023/05/14 00:40:58;;;;;;;;;;;;;;;21.77;29.47;98646.97;5074996;28;953;-73
2023/05/14 00:43:24;;;;;;;;;;;;;;;21.72;29.46;98650.28;5058230;28;1906;-73
2023/05/14 00:45:50;;;;;;;;;;;;;;;21.33;30.11;98653.75;5074809;28;907;-72
2023/05/14 00:48:16;;;;;;;;;;;;;;;21.47;29.92;98647.06;5057622;28;1326;-72
2023/05/14 00:50:42;;;;;;;;;;;;;;;21.19;30.33;98651.09;5073990;28;1395;-72
2023/05/14 00:53:09;;;;;;;;;;;;;;;21.03;30.71;98643.22;5058311;28;955;-73
2023/05/14 00:55:38;;;;;;;;;;;;;;;21.47;29.93;98647.06;5091998;28;882;-72
2023/05/14 00:58:08;;;;;;;;;;;;;;;21.57;29.93;98648.94;5070720;28;1503;-73
2023/05/14 01:00:34;;;;;;;;;;;;;;;21.48;30.25;98651.50;5055585;28;896;-73
2023/05/14 01:03:00;;;;;;;;;;;;;;;21.99;29.58;98640.94;5055258;28;1902;-73
2023/05/14 01:05:27;;;;;;;;;;;;;;;22.25;29.10;98642.91;5055762;28;946;-72
2023/05/14 01:07:56;;;;;;;;;;;;;;;22.31;28.80;98641.16;5038654;28;1339;-73
2023/05/14 01:10:40;;;;;;;;;;;;;;;21.94;29.34;98633.72;5055219;28;919;-72
2023/05/14 01:13:12;;;;;;;;;;;;;;;21.62;29.54;98637.13;5056249;28;1182;-73
2023/05/14 01:15:38;;;;;;;;;;;;;;;21.57;29.46;98631.94;5072122;28;1078;-73
2023/05/14 01:18:06;;;;;;;;;;;;;;;21.63;29.60;98630.22;5071451;28;1500;-72
2023/05/14 01:20:32;;;;;;;;;;;;;;;21.70;29.50;98624.41;5055295;28;974;-73
2023/05/14 01:22:57;;;;;;;;;;;;;;;21.65;29.72;98627.75;5057352;28;1914;-73
2023/05/14 01:25:23;;;;;;;;;;;;;;;21.41;30.18;98626.13;5040758;28;1302;-73
2023/05/14 01:27:53;;;;;;;;;;;;;;;21.40;30.10;98621.69;5056951;28;1519;-73
2023/05/14 01:30:23;;;;;;;;;;;;;;;21.37;30.35;98636.72;5056928;28;1448;-74
2023/05/14 01:32:50;;;;;;;;;;;;;;;21.28;30.40;98632.34;5057049;28;1130;-72
2023/05/14 01:35:16;;;;;;;;;;;;;;;21.99;29.59;98632.44;5057050;28;1394;-73
2023/05/14 01:37:42;;;;;;;;;;;;;;;22.17;29.20;98635.75;5056519;28;1536;-73
2023/05/14 01:40:10;;;;;;;;;;;;;;;22.17;28.98;98630.06;5057305;28;1208;-72
2023/05/14 01:42:36;;;;;;;;;;;;;;;21.65;29.71;98627.75;5033570;28;1910;-73
2023/05/14 01:45:01;;;;;;;;;;;;;;;21.44;30.02;98628.09;5000305;28;1138;-73
2023/05/14 01:47:27;;;;;;;;;;;;;;;21.47;30.06;98624.41;5017386;28;1016;-73
2023/05/14 01:49:53;;;;;;;;;;;;;;;21.43;30.07;98626.50;5001972;28;1290;-73
2023/05/14 01:52:20;;;;;;;;;;;;;;;21.37;30.07;98634.69;5036846;28;1727;-73
2023/05/14 01:54:48;;;;;;;;;;;;;;;21.50;29.78;98627.19;5053423;28;1010;-74
2023/05/14 01:57:14;;;;;;;;;;;;;;;21.65;29.54;98626.94;5036959;28;988;-73
2023/05/14 01:59:39;;;;;;;;;;;;;;;21.63;30.31;98630.22;5016468;28;1411;-72
2023/05/14 02:02:05;;;;;;;;;;;;;;;22.23;28.95;98628.38;5050031;28;1906;-72
2023/05/14 02:04:30;;;;;;;;;;;;;;;21.91;29.68;98628.91;5033268;28;978;-73
2023/05/14 02:06:56;;;;;;;;;;;;;;;21.68;29.84;98626.91;5016675;28;1045;-72
2023/05/14 02:09:23;;;;;;;;;;;;;;;21.72;29.35;98624.81;5010890;28;1440;-73
2023/05/14 02:11:48;;;;;;;;;;;;;;;21.49;29.70;98624.78;5033347;28;1405;-73
2023/05/14 02:14:14;;;;;;;;;;;;;;;21.39;29.81;98622.91;5032347;28;1246;-73
2023/05/14 02:16:40;;;;;;;;;;;;;;;21.68;29.30;98621.22;5053481;28;893;-72
2023/05/14 02:19:06;;;;;;;;;;;;;;;21.84;29.26;98626.22;5060131;28;1589;-73
2023/05/14 02:21:31;;;;;;;;;;;;;;;21.63;29.60;98624.56;5053122;28;1272;-73
2023/05/14 02:23:57;;;;;;;;;;;;;;;21.33;30.24;98629.06;5066087;28;1972;-72
2023/05/14 02:26:22;;;;;;;;;;;;;;;21.16;30.71;98624.47;5070175;28;1977;-73
2023/05/14 02:28:49;;;;;;;;;;;;;;;21.29;30.34;98616.97;5061852;28;1435;-73
2023/05/14 02:31:16;;;;;;;;;;;;;;;21.43;30.15;98615.19;5102281;28;1333;-73
2023/05/14 02:33:41;;;;;;;;;;;;;;;21.85;29.62;98625.78;5106353;28;1369;-73
2023/05/14 02:36:07;;;;;;;;;;;;;;;22.28;28.94;98636.38;5107815;28;1071;-73
2023/05/14 02:38:33;;;;;;;;;;;;;;;21.92;29.51;98630.53;5091371;28;1105;-72
2023/05/14 02:40:58;;;;;;;;;;;;;;;21.47;29.92;98642.22;5102725;28;1442;-74
2023/05/14 02:43:24;;;;;;;;;;;;;;;21.69;29.22;98639.81;5075872;28;1902;-72
2023/05/14 02:45:50;;;;;;;;;;;;;;;21.45;29.81;98636.19;5055141;28;998;-73
2023/05/14 02:48:16;;;;;;;;;;;;;;;21.53;29.81;98645.34;5070481;28;925;-73
2023/05/14 02:50:42;;;;;;;;;;;;;;;21.33;30.23;98640.38;5071083;28;1640;-73
2023/05/14 02:53:07;;;;;;;;;;;;;;;21.48;29.76;98632.47;5087365;28;1044;-73
2023/05/14 02:55:33;;;;;;;;;;;;;;;21.69;29.46;98636.97;5055232;28;927;-73
2023/05/14 02:57:58;;;;;;;;;;;;;;;21.65;29.40;98639.06;5115231;28;1175;-73
2023/05/14 03:00:24;;;;;;;;;;;;;;;21.59;29.83;98640.78;5066683;28;1230;-73
2023/05/14 03:02:49;;;;;;;;;;;;;;;21.94;29.81;98649.94;5079053;28;2290;-73
2023/05/14 03:05:15;;;;;;;;;;;;;;;21.91;29.67;98651.56;5079836;28;1180;-73
2023/05/14 03:07:41;;;;;;;;;;;;;;;22.34;28.96;98662.97;5079796;28;1252;-73
2023/05/14 03:10:06;;;;;;;;;;;;;;;22.27;28.59;98663.09;5079961;28;1194;-73
2023/05/14 03:12:32;;;;;;;;;;;;;;;21.64;29.25;98651.63;5107232;28;1482;-73
2023/05/14 03:14:58;;;;;;;;;;;;;;;21.63;29.47;98658.53;5083281;28;1520;-73
2023/05/14 03:17:23;;;;;;;;;;;;;;;21.75;29.26;98649.41;5099888;28;1640;-73
2023/05/14 03:19:49;;;;;;;;;;;;;;;21.54;29.37;98649.78;5116876;28;1002;-73
2023/05/14 03:22:14;;;;;;;;;;;;;;;21.70;29.25;98644.25;5055585;28;1910;-72
2023/05/14 03:24:40;;;;;;;;;;;;;;;21.14;30.62;98655.22;5019799;28;1677;-73
2023/05/14 03:27:06;;;;;;;;;;;;;;;21.43;30.13;98654.81;5036468;28;991;-73
2023/05/14 03:29:31;;;;;;;;;;;;;;;21.29;30.27;98659.41;5021580;28;991;-73
2023/05/14 03:31:57;;;;;;;;;;;;;;;21.37;30.32;98667.84;5006287;28;1696;-73
2023/05/14 03:34:22;;;;;;;;;;;;;;;22.11;29.70;98674.31;5016187;28;1134;-73
2023/05/14 03:36:48;;;;;;;;;;;;;;;22.47;28.99;98668.00;5016329;28;969;-73
2023/05/14 03:39:20;;;;;;;;;;;;;;;21.80;29.54;98668.75;5016266;28;1138;-73
2023/05/14 03:41:45;;;;;;;;;;;;;;;21.51;30.10;98656.31;5023061;28;1353;-73
2023/05/14 03:44:11;;;;;;;;;;;;;;;21.50;29.96;98663.19;5072336;28;1898;-73
2023/05/14 03:46:37;;;;;;;;;;;;;;;21.42;30.33;98658.88;5072416;28;1083;-73
2023/05/14 03:49:03;;;;;;;;;;;;;;;21.50;30.01;98657.53;5055799;28;1736;-73
2023/05/14 03:51:28;;;;;;;;;;;;;;;21.26;30.53;98657.47;5038594;28;1576;-73
2023/05/14 03:53:56;;;;;;;;;;;;;;;21.30;30.32;98666.75;5032223;28;1653;-73
2023/05/14 03:56:22;;;;;;;;;;;;;;;21.33;30.45;98656.56;4992591;28;1252;-72
2023/05/14 03:58:48;;;;;;;;;;;;;;;21.36;30.25;98654.94;4992952;28;1059;-74
2023/05/14 04:01:13;;;;;;;;;;;;;;;21.74;29.93;98664.81;4985209;28;1626;-73
2023/05/14 04:03:39;;;;;;;;;;;;;;;21.44;30.53;98679.06;5019255;28;1914;-74
2023/05/14 04:06:05;;;;;;;;;;;;;;;21.68;30.18;98680.72;5019341;28;1256;-73
2023/05/14 04:08:31;;;;;;;;;;;;;;;22.02;29.56;98686.22;5032513;28;1390;-74
2023/05/14 04:10:56;;;;;;;;;;;;;;;22.13;29.63;98690.94;5015793;28;1234;-73
2023/05/14 04:13:22;;;;;;;;;;;;;;;21.93;29.86;98682.34;5015554;28;1387;-73
2023/05/14 04:15:47;;;;;;;;;;;;;;;21.63;30.13;98686.06;4984440;28;1179;-73
2023/05/14 04:18:13;;;;;;;;;;;;;;;21.67;30.03;98683.97;5012322;28;1109;-73
2023/05/14 04:20:39;;;;;;;;;;;;;;;21.53;30.00;98682.16;5012284;28;1210;-73
2023/05/14 04:23:05;;;;;;;;;;;;;;;21.12;30.93;98685.97;5014973;28;1985;-72
2023/05/14 04:25:30;;;;;;;;;;;;;;;21.45;30.46;98677.81;5017185;28;1064;-75
2023/05/14 04:27:57;;;;;;;;;;;;;;;21.54;29.82;98670.41;5068033;28;901;-73
2023/05/14 04:30:22;;;;;;;;;;;;;;;21.29;30.80;98673.56;5078730;28;971;-73
2023/05/14 04:32:48;;;;;;;;;;;;;;;22.03;30.03;98670.00;5078420;28;961;-73
2023/05/14 04:35:14;;;;;;;;;;;;;;;22.25;29.48;98670.44;5044682;28;959;-75
2023/05/14 04:37:40;;;;;;;;;;;;;;;21.91;29.85;98676.28;5061709;28;1380;-74
2023/05/14 04:40:10;;;;;;;;;;;;;;;21.51;30.45;98681.81;5078444;28;976;-74
2023/05/14 04:42:36;;;;;;;;;;;;;;;21.56;30.30;98675.66;5054779;28;1985;-75
2023/05/14 04:45:01;;;;;;;;;;;;;;;21.43;30.37;98677.47;5054780;28;1381;-74
2023/05/14 04:47:27;;;;;;;;;;;;;;;21.35;30.26;98673.94;5054422;28;897;-74
2023/05/14 04:49:53;;;;;;;;;;;;;;;21.11;30.84;98675.88;5054697;28;743;-74
2023/05/14 04:52:18;;;;;;;;;;;;;;;21.34;30.49;98680.81;5021321;28;1131;-74
2023/05/14 04:54:44;;;;;;;;;;;;;;;21.28;30.61;98683.28;5038184;28;1142;-74
2023/05/14 04:57:09;;;;;;;;;;;;;;;21.40;30.15;98681.13;5054500;28;998;-75
2023/05/14 04:59:35;;;;;;;;;;;;;;;21.69;29.99;98690.78;5035178;28;869;-74
2023/05/14 05:02:00;;;;;;;;;;;;;;;21.43;30.41;98683.13;5034430;28;1906;-73
2023/05/14 05:04:26;;;;;;;;;;;;;;;21.60;30.10;98682.03;5017806;28;1008;-74
2023/05/14 05:06:52;;;;;;;;;;;;;;;22.42;29.16;98674.97;5017888;28;1146;-74
2023/05/14 05:09:17;;;;;;;;;;;;;;;22.54;29.14;98682.84;5014549;28;904;-75
2023/05/14 05:11:43;;;;;;;;;;;;;;;22.12;29.32;98677.97;5037404;28;1038;-75
2023/05/14 05:14:09;;;;;;;;;;;;;;;21.95;29.78;98685.53;5020841;28;1156;-75
2023/05/14 05:16:34;;;;;;;;;;;;;;;21.71;30.01;98685.53;5037670;28;932;-75
2023/05/14 05:19:00;;;;;;;;;;;;;;;21.60;30.08;98687.69;5055744;28;1281;-75
2023/05/14 05:21:26;;;;;;;;;;;;;;;21.68;29.69;98683.53;5056816;28;963;-75
2023/05/14 05:23:51;;;;;;;;;;;;;;;21.63;30.18;98686.06;5057382;28;1914;-75
2023/05/14 05:26:17;;;;;;;;;;;;;;;21.41;30.37;98677.91;5057589;28;955;-75
2023/05/14 05:28:42;;;;;;;;;;;;;;;21.49;30.21;98675.75;5057294;28;1055;-75
2023/05/14 05:31:08;;;;;;;;;;;;;;;21.38;30.53;98680.78;5073981;28;950;-75
2023/05/14 05:33:33;;;;;;;;;;;;;;;21.56;30.09;98684.16;5033610;28;976;-75
2023/05/14 05:35:59;;;;;;;;;;;;;;;21.39;30.35;98673.88;5000943;28;1234;-76
2023/05/14 05:38:25;;;;;;;;;;;;;;;21.70;29.86;98689.56;5033541;28;1017;-76
2023/05/14 05:40:51;;;;;;;;;;;;;;;22.25;29.60;98688.25;5048358;28;932;-76
2023/05/14 05:43:16;;;;;;;;;;;;;;;22.68;28.73;98680.94;5054112;28;1905;-75
2023/05/14 05:45:42;;;;;;;;;;;;;;;22.51;29.18;98682.91;5037140;28;1250;-75
2023/05/14 05:48:08;;;;;;;;;;;;;;;21.99;29.80;98674.94;5032743;28;1092;-75
2023/05/14 05:50:33;;;;;;;;;;;;;;;22.02;29.78;98685.38;4994340;28;1150;-75
2023/05/14 05:52:59;;;;;;;;;;;;;;;21.76;30.06;98676.53;4994386;28;1312;-75
2023/05/14 05:55:24;;;;;;;;;;;;;;;21.46;30.38;98676.63;5014685;28;1238;-75
2023/05/14 05:57:50;;;;;;;;;;;;;;;21.58;30.15;98676.00;5030481;28;1108;-75
2023/05/14 06:00:16;;;;;;;;;;;;;;;21.40;30.45;98666.97;4981205;28;987;-75
2023/05/14 06:02:41;;;;;;;;;;;;;;;21.53;30.21;98677.28;4964836;28;1985;-75
2023/05/14 06:05:10;;;;;;;;;;;;;;;21.45;30.56;98678.66;5051448;28;1230;-75
2023/05/14 06:07:35;;;;;;;;;;;;;;;21.53;30.44;98682.16;5076949;28;1000;-75
2023/05/14 06:10:01;;;;;;;;;;;;;;;21.40;30.67;98673.47;5060164;28;1265;-75
2023/05/14 06:12:27;;;;;;;;;;;;;;;22.32;29.46;98698.66;5093199;28;1268;-75
2023/05/14 06:14:54;;;;;;;;;;;;;;;22.67;28.76;98697.16;5076957;28;1005;-75
2023/05/14 06:17:19;;;;;;;;;;;;;;;22.25;29.64;98693.13;5060520;28;1112;-75
2023/05/14 06:19:45;;;;;;;;;;;;;;;21.74;30.29;98681.81;5076804;28;985;-75
2023/05/14 06:22:10;;;;;;;;;;;;;;;21.98;29.97;98693.97;5060038;28;1902;-75
2023/05/14 06:24:36;;;;;;;;;;;;;;;21.52;30.51;98687.03;5093341;28;1008;-75
2023/05/14 06:27:02;;;;;;;;;;;;;;;21.57;30.61;98682.91;5076725;28;1102;-74
2023/05/14 06:29:27;;;;;;;;;;;;;;;21.71;30.16;98688.34;5093751;28;1074;-75
2023/05/14 06:31:53;;;;;;;;;;;;;;;21.40;30.52;98683.97;5080769;28;985;-75
2023/05/14 06:34:18;;;;;;;;;;;;;;;21.61;30.42;98689.31;5100899;28;1478;-75
2023/05/14 06:36:44;;;;;;;;;;;;;;;21.57;30.45;98697.06;5117922;28;982;-75
2023/05/14 06:39:11;;;;;;;;;;;;;;;21.43;30.78;98700.09;5083554;28;926;-75
2023/05/14 06:41:36;;;;;;;;;;;;;;;21.67;31.01;98704.59;5079947;28;1336;-75
2023/05/14 06:44:02;;;;;;;;;;;;;;;21.93;30.23;98705.00;5079263;28;1985;-75
2023/05/14 06:46:28;;;;;;;;;;;;;;;22.02;29.83;98708.06;5079396;28;962;-75
2023/05/14 06:48:53;;;;;;;;;;;;;;;21.69;30.49;98704.16;5045158;28;1118;-75
2023/05/14 06:51:19;;;;;;;;;;;;;;;21.62;30.57;98704.28;5078091;28;1240;-75
2023/05/14 06:53:45;;;;;;;;;;;;;;;21.69;30.09;98707.78;5061373;28;1249;-76
2023/05/14 06:56:12;;;;;;;;;;;;;;;21.70;30.08;98708.59;5078022;28;951;-75
2023/05/14 06:58:38;;;;;;;;;;;;;;;21.56;30.24;98712.47;5078147;28;931;-76
2023/05/14 07:01:03;;;;;;;;;;;;;;;21.44;30.55;98702.50;5079207;28;1113;-75
2023/05/14 07:03:29;;;;;;;;;;;;;;;21.42;30.63;98710.63;5079121;28;1978;-75
2023/05/14 07:05:54;;;;;;;;;;;;;;;21.53;30.80;98716.13;5059922;28;1257;-75
2023/05/14 07:08:20;;;;;;;;;;;;;;;21.52;30.50;98714.53;5059755;28;895;-75
2023/05/14 07:10:45;;;;;;;;;;;;;;;21.30;30.83;98703.53;5060316;28;903;-75
2023/05/14 07:13:11;;;;;;;;;;;;;;;21.79;30.42;98709.66;5076530;28;1231;-75
2023/05/14 07:15:37;;;;;;;;;;;;;;;22.27;29.80;98714.13;5059798;28;1094;-75
2023/05/14 07:18:02;;;;;;;;;;;;;;;22.44;29.53;98717.09;5039758;28;981;-75
2023/05/14 07:20:28;;;;;;;;;;;;;;;21.98;30.31;98718.69;5040156;28;1009;-75
2023/05/14 07:22:53;;;;;;;;;;;;;;;21.76;30.46;98721.03;5016203;28;1918;-74
2023/05/14 07:25:19;;;;;;;;;;;;;;;21.65;30.54;98724.03;4996818;28;1229;-75
2023/05/14 07:27:45;;;;;;;;;;;;;;;21.43;30.85;98717.09;4996840;28;1015;-75
2023/05/14 07:30:10;;;;;;;;;;;;;;;21.35;30.99;98726.91;4997115;28;1118;-75
2023/05/14 07:32:36;;;;;;;;;;;;;;;21.36;30.94;98728.53;4996794;28;947;-74
2023/05/14 07:35:01;;;;;;;;;;;;;;;21.35;31.09;98726.91;4996712;28;952;-75
2023/05/14 07:37:27;;;;;;;;;;;;;;;21.50;30.52;98728.31;4982719;28;1127;-75
2023/05/14 07:39:52;;;;;;;;;;;;;;;21.54;30.45;98715.69;4977416;28;1136;-75
2023/05/14 07:42:18;;;;;;;;;;;;;;;21.40;30.98;98717.94;4977180;28;1906;-75
2023/05/14 07:44:44;;;;;;;;;;;;;;;21.53;30.56;98716.13;4960472;28;1082;-75
2023/05/14 07:47:10;;;;;;;;;;;;;;;21.54;30.47;98717.75;4960957;28;943;-75
2023/05/14 07:49:35;;;;;;;;;;;;;;;21.83;29.87;98730.22;4975299;28;1142;-75
2023/05/14 07:52:01;;;;;;;;;;;;;;;22.54;29.52;98728.22;4960977;28;1164;-75
2023/05/14 07:54:27;;;;;;;;;;;;;;;22.35;30.11;98726.94;4976894;28;981;-75
2023/05/14 07:56:53;;;;;;;;;;;;;;;22.04;30.06;98734.75;5022071;28;913;-75
2023/05/14 07:59:18;;;;;;;;;;;;;;;21.69;30.63;98744.63;5004368;28;1031;-75
2023/05/14 08:01:44;;;;;;;;;;;;;;;21.57;30.61;98745.22;5025997;28;1158;-75
2023/05/14 08:04:10;;;;;;;;;;;;;;;21.44;30.80;98735.69;5042279;28;1977;-75
2023/05/14 08:06:36;;;;;;;;;;;;;;;21.54;30.80;98734.72;5075619;28;1006;-75
2023/05/14 08:09:04;;;;;;;;;;;;;;;21.27;31.00;98735.47;5042370;28;1114;-75
2023/05/14 08:11:29;;;;;;;;;;;;;;;21.26;31.10;98748.03;5058850;28;1169;-75
2023/05/14 08:13:55;;;;;;;;;;;;;;;21.42;30.72;98738.94;5058879;28;1037;-75
2023/05/14 08:16:21;;;;;;;;;;;;;;;21.75;30.83;98742.09;5075614;28;1128;-75
2023/05/14 08:18:46;;;;;;;;;;;;;;;22.17;29.85;98743.47;5058423;28;1010;-74
2023/05/14 08:21:12;;;;;;;;;;;;;;;22.14;29.95;98744.34;5058932;28;988;-75
2023/05/14 08:23:38;;;;;;;;;;;;;;;21.62;30.59;98736.22;5054679;28;1991;-75
2023/05/14 08:26:03;;;;;;;;;;;;;;;21.59;30.56;98728.59;5077899;28;1042;-76
2023/05/14 08:28:29;;;;;;;;;;;;;;;21.56;30.54;98720.97;5059944;28;1621;-75
2023/05/14 08:30:54;;;;;;;;;;;;;;;21.47;30.58;98729.19;5076106;28;1081;-75
2023/05/14 08:33:20;;;;;;;;;;;;;;;21.49;30.25;98726.72;5076839;28;1375;-75
2023/05/14 08:35:45;;;;;;;;;;;;;;;21.44;30.70;98716.66;5103617;28;1176;-76
2023/05/14 08:38:11;;;;;;;;;;;;;;;21.63;30.45;98720.84;5087665;28;1205;-75
2023/05/14 08:40:37;;;;;;;;;;;;;;;21.43;30.53;98711.44;5103296;28;1268;-75
2023/05/14 08:43:02;;;;;;;;;;;;;;;21.61;30.17;98706.31;5078442;28;1902;-75
2023/05/14 08:45:28;;;;;;;;;;;;;;;22.44;29.62;98717.09;5096632;28;1323;-75
2023/05/14 08:47:54;;;;;;;;;;;;;;;22.70;28.97;98707.66;5085138;28;1233;-75
2023/05/14 08:50:21;;;;;;;;;;;;;;;22.21;29.78;98698.84;5057509;28;1233;-75
2023/05/14 08:52:46;;;;;;;;;;;;;;;21.59;30.77;98703.09;5062086;28;1241;-75
2023/05/14 08:55:12;;;;;;;;;;;;;;;21.56;30.59;98704.78;5048408;28;1245;-75
2023/05/14 08:57:37;;;;;;;;;;;;;;;21.65;30.29;98712.72;5024546;28;1258;-75
2023/05/14 09:00:13;;;;;;;;;;;;;;;21.62;30.20;98713.59;5024640;28;1277;-75
2023/05/14 09:02:39;;;;;;;;;;;;;;;21.55;30.31;98710.84;5009762;28;1974;-75
2023/05/14 09:05:06;;;;;;;;;;;;;;;21.50;30.45;98711.31;5008668;28;1246;-75
2023/05/14 09:07:32;;;;;;;;;;;;;;;21.41;30.50;98711.06;4958102;28;1360;-75
2023/05/14 09:09:57;;;;;;;;;;;;;;;21.46;30.74;98710.59;4980181;28;1198;-76
2023/05/14 09:12:23;;;;;;;;;;;;;;;21.31;30.73;98707.16;4977603;28;1552;-75
2023/05/14 09:14:49;;;;;;;;;;;;;;;21.42;30.61;98715.50;4988774;28;1304;-75
2023/05/14 09:17:15;;;;;;;;;;;;;;;21.24;30.90;98682.56;4992267;28;1227;-76
2023/05/14 09:19:41;;;;;;;;;;;;;;;21.67;30.23;98703.81;5027235;28;1009;-75
2023/05/14 09:22:13;;;;;;;;;;;;;;;21.57;30.10;98705.56;5036622;28;1976;-75
2023/05/14 09:24:38;;;;;;;;;;;;;;;21.42;30.49;98704.19;5056353;28;1170;-75
2023/05/14 09:27:04;;;;;;;;;;;;;;;21.54;30.21;98698.72;5053877;28;914;-75
2023/05/14 09:29:30;;;;;;;;;;;;;;;21.44;30.25;98701.72;5038064;28;1831;-76
2023/05/14 09:31:56;;;;;;;;;;;;;;;21.44;30.21;98693.22;5041066;28;1006;-76
2023/05/14 09:34:29;;;;;;;;;;;;;;;21.73;29.94;98713.41;5040687;28;987;-75
2023/05/14 09:36:55;;;;;;;;;;;;;;;21.54;30.23;98700.75;5057560;28;1012;-76
2023/05/14 09:39:22;;;;;;;;;;;;;;;21.49;30.19;98709.72;5057031;28;987;-75
2023/05/14 09:41:48;;;;;;;;;;;;;;;21.33;30.29;98718.84;5040973;28;971;-75
2023/05/14 09:44:13;;;;;;;;;;;;;;;21.73;29.85;98728.38;5040577;28;1910;-75
2023/05/14 09:46:39;;;;;;;;;;;;;;;21.79;29.48;98726.66;5023541;28;1057;-75
2023/05/14 09:49:05;;;;;;;;;;;;;;;21.56;29.87;98726.63;5017484;28;1146;-75
2023/05/14 09:51:31;;;;;;;;;;;;;;;21.54;29.87;98712.88;5017431;28;1143;-75
2023/05/14 09:53:56;;;;;;;;;;;;;;;21.40;30.23;98709.44;5017546;28;979;-75
2023/05/14 09:56:22;;;;;;;;;;;;;;;21.63;29.63;98715.19;5017147;28;1110;-75
2023/05/14 09:58:48;;;;;;;;;;;;;;;22.06;29.74;98703.13;5038210;28;1006;-76
2023/05/14 10:01:14;;;;;;;;;;;;;;;22.38;29.30;98710.28;5087785;28;971;-75
2023/05/14 10:03:40;;;;;;;;;;;;;;;22.18;29.63;98722.41;5088127;28;1980;-75
2023/05/14 10:06:06;;;;;;;;;;;;;;;21.66;30.59;98720.00;5070754;28;1051;-75
2023/05/14 10:08:32;;;;;;;;;;;;;;;21.74;30.32;98715.81;5055529;28;897;-75
2023/05/14 10:10:58;;;;;;;;;;;;;;;21.65;30.20;98715.53;5088465;28;901;-75
2023/05/14 10:13:26;;;;;;;;;;;;;;;21.58;30.40;98713.63;5087781;28;1122;-75
2023/05/14 10:15:58;;;;;;;;;;;;;;;21.43;30.40;98711.44;5088331;28;1853;-75
2023/05/14 10:18:24;;;;;;;;;;;;;;;21.46;30.55;98710.59;5087975;28;1126;-75
2023/05/14 10:20:56;;;;;;;;;;;;;;;21.75;30.10;98717.41;5071074;28;1141;-75
2023/05/14 10:23:21;;;;;;;;;;;;;;;21.62;30.33;98707.91;5087838;28;1894;-75
2023/05/14 10:25:47;;;;;;;;;;;;;;;21.42;30.22;98709.84;5055675;28;959;-75
2023/05/14 10:28:13;;;;;;;;;;;;;;;21.16;30.94;98698.03;5070700;28;916;-76
2023/05/14 10:30:45;;;;;;;;;;;;;;;21.72;30.39;98692.78;5055423;28;1029;-75
2023/05/14 10:33:11;;;;;;;;;;;;;;;21.99;29.99;98697.59;5054200;28;1305;-75
2023/05/14 10:36:00;;;;;;;;;;;;;;;22.16;29.93;98705.00;5070893;28;930;-75
2023/05/14 10:38:26;;;;;;;;;;;;;;;21.69;30.23;98704.97;5052796;28;990;-75
2023/05/14 10:40:58;;;;;;;;;;;;;;;21.70;30.22;98703.72;5036537;28;1146;-75
2023/05/14 10:43:24;;;;;;;;;;;;;;;21.62;30.03;98712.78;5053138;28;1902;-76
2023/05/14 10:45:50;;;;;;;;;;;;;;;21.65;30.14;98715.53;5053187;28;975;-75
2023/05/14 10:48:15;;;;;;;;;;;;;;;21.37;30.43;98713.16;5016468;28;1177;-75
2023/05/14 10:50:42;;;;;;;;;;;;;;;21.26;30.76;98713.28;4993971;28;1203;-75
2023/05/14 10:53:09;;;;;;;;;;;;;;;21.57;30.21;98700.69;4993695;28;1094;-75
2023/05/14 10:55:35;;;;;;;;;;;;;;;21.64;30.13;98710.31;4977595;28;1254;-75
2023/05/14 10:58:02;;;;;;;;;;;;;;;21.31;30.47;98707.97;4954483;29;958;-75
2023/05/14 11:00:28;;;;;;;;;;;;;;;22.03;30.09;98712.50;4955156;29;974;-75
2023/05/14 11:02:54;;;;;;;;;;;;;;;22.04;29.95;98714.13;4935730;29;1914;-76
2023/05/14 11:05:19;;;;;;;;;;;;;;;21.91;30.18;98718.78;4935819;29;1158;-75
2023/05/14 11:07:46;;;;;;;;;;;;;;;21.57;30.64;98711.22;4935692;29;1075;-75
2023/05/14 11:10:12;;;;;;;;;;;;;;;21.71;30.48;98711.00;4919866;29;1208;-75
2023/05/14 11:12:39;;;;;;;;;;;;;;;21.75;30.15;98717.41;4935612;29;1293;-75
2023/05/14 11:15:08;;;;;;;;;;;;;;;21.67;30.14;98710.25;4919491;29;1286;-75
2023/05/14 11:17:34;;;;;;;;;;;;;;;21.32;30.79;98695.41;4951914;28;958;-75
2023/05/14 11:20:00;;;;;;;;;;;;;;;21.28;30.73;98705.94;4984419;28;1087;-75
2023/05/14 11:22:25;;;;;;;;;;;;;;;21.46;30.63;98702.09;4964003;28;1918;-75
2023/05/14 11:24:51;;;;;;;;;;;;;;;21.55;30.42;98696.69;4964371;28;1275;-75
2023/05/14 11:27:17;;;;;;;;;;;;;;;21.37;30.53;98687.66;4967330;28;1222;-75
2023/05/14 11:29:43;;;;;;;;;;;;;;;21.47;30.14;98684.69;5015268;28;1249;-75
2023/05/14 11:32:09;;;;;;;;;;;;;;;21.39;30.70;98682.38;5016162;28;1225;-76
2023/05/14 11:34:36;;;;;;;;;;;;;;;22.04;29.84;98677.28;5042245;28;1237;-75
2023/05/14 11:37:03;;;;;;;;;;;;;;;22.10;29.94;98670.69;5038677;28;1345;-75
2023/05/14 11:39:30;;;;;;;;;;;;;;;22.30;29.50;98667.91;5055689;28;1059;-75
2023/05/14 11:41:56;;;;;;;;;;;;;;;21.62;30.54;98665.44;5055960;28;1019;-75
2023/05/14 11:44:22;;;;;;;;;;;;;;;21.51;30.48;98656.31;5055269;28;1972;-75
2023/05/14 11:46:54;;;;;;;;;;;;;;;21.43;30.67;98654.81;5055314;28;1411;-75
2023/05/14 11:49:22;;;;;;;;;;;;;;;21.56;30.32;98642.47;5030110;28;1234;-75
2023/05/14 11:51:48;;;;;;;;;;;;;;;21.62;30.01;98634.28;5036019;28;1507;-75
2023/05/14 11:54:14;;;;;;;;;;;;;;;21.52;30.17;98624.72;5038157;28;1194;-75
2023/05/14 11:56:39;;;;;;;;;;;;;;;21.25;30.76;98621.91;5021978;28;1317;-75
2023/05/14 11:59:05;;;;;;;;;;;;;;;22.10;29.97;98613.19;5054886;28;1182;-75
2023/05/14 12:01:37;;;;;;;;;;;;;;;22.45;29.39;98605.25;5038521;28;1487;-76
2023/05/14 12:04:03;;;;;;;;;;;;;;;22.65;29.01;98600.38;5038834;28;1902;-75
2023/05/14 12:06:31;;;;;;;;;;;;;;;22.50;29.01;98596.25;5039093;28;1191;-75
2023/05/14 12:08:57;;;;;;;;;;;;;;;21.96;29.99;98596.44;4988122;28;972;-76
2023/05/14 12:11:22;;;;;;;;;;;;;;;21.89;30.17;98591.72;4999386;28;1133;-75
2023/05/14 12:13:48;;;;;;;;;;;;;;;21.56;30.57;98590.69;5015641;28;1208;-75
2023/05/14 12:16:13;;;;;;;;;;;;;;;21.54;30.43;98596.78;5015686;28;1292;-75
2023/05/14 12:18:39;;;;;;;;;;;;;;;21.22;31.26;98594.44;4999396;28;1014;-75
2023/05/14 12:21:07;;;;;;;;;;;;;;;21.50;30.73;98598.06;5032449;28;987;-75
2023/05/14 12:23:32;;;;;;;;;;;;;;;21.47;30.61;98582.75;5055826;28;1901;-75
2023/05/14 12:26:02;;;;;;;;;;;;;;;21.64;30.31;98586.50;5060168;28;1130;-74
2023/05/14 12:28:28;;;;;;;;;;;;;;;21.53;30.45;98580.22;5076379;28;1016;-75
2023/05/14 12:30:57;;;;;;;;;;;;;;;21.67;30.14;98584.84;5059396;28;1242;-76
2023/05/14 12:33:22;;;;;;;;;;;;;;;21.57;30.43;98580.97;5059614;28;1450;-75
2023/05/14 12:35:48;;;;;;;;;;;;;;;21.61;30.07;98584.53;5059838;28;890;-75
2023/05/14 12:38:14;;;;;;;;;;;;;;;21.55;30.04;98595.56;5059572;28;1105;-75
2023/05/14 12:40:39;;;;;;;;;;;;;;;21.39;30.36;98594.63;5076222;28;1447;-75
2023/05/14 12:43:05;;;;;;;;;;;;;;;21.45;30.39;98584.38;5038128;28;1957;-75
2023/05/14 12:45:31;;;;;;;;;;;;;;;21.42;30.41;98586.06;5038207;28;1019;-75
2023/05/14 12:47:56;;;;;;;;;;;;;;;21.36;30.35;98581.34;5054562;28;1018;-75
2023/05/14 12:50:22;;;;;;;;;;;;;;;21.38;30.26;98590.19;5038276;28;1030;-75
2023/05/14 12:52:48;;;;;;;;;;;;;;;21.68;30.45;98592.91;5038401;28;897;-75
2023/05/14 12:55:13;;;;;;;;;;;;;;;22.15;29.83;98597.75;5037915;28;976;-75